Latest Weather Observations for Mount Boyce

IDN60801

Issued at 1:03 pm EST Sunday 29 May 2022 (issued every 10 minutes, with the page automatically refreshed every 10 minutes)

About weather observations | Map of weather stations | Latest weather observations for NSW | Other Formats
Station Details ID: 063292 Name: MOUNT BOYCE AWS Lat: -33.62 Lon: 150.27 Height: 1080.0 m
Data from the previous 72 hours. | See also: Recent months at Mount Boyce
Date/Time
EST
Temp
°C
App
Temp
°C
Dew
Point
°C
Rel
Hum
%
Delta-T
°C
Wind Press
QNH
hPa
Press
MSL
hPa
Rain since
9am
mm
Dir  Spd
km/h
Gust
km/h
Spd
kts
Gust
kts
29/01:00pm 6.8 -0.3 1.1 67 2.4 W 28 39 15 21 - - 0.0
29/12:30pm 6.5 -1.1 0.8 67 2.4 W 30 44 16 24 - - 0.0
29/12:13pm 6.3 -0.9 0.8 68 2.3 WSW 28 46 15 25 - - 0.0
29/12:00pm 6.4 -1.1 1.1 69 2.3 WSW 30 44 16 24 - - 0.0
29/11:30am 6.4 -0.3 1.5 71 2.1 WSW 26 41 14 22 - - 0.0
29/11:00am 6.0 -0.8 0.8 69 2.2 W 26 41 14 22 - - 0.0
29/10:30am 6.0 0.5 1.7 74 1.9 W 20 33 11 18 - - 0.0
29/10:00am 5.3 -1.0 1.8 78 1.5 W 24 32 13 17 - - 0.0
29/09:30am 4.5 -1.4 1.7 82 1.2 W 22 32 12 17 - - 0.0
29/09:00am 3.9 -1.7 1.3 83 1.1 W 20 30 11 16 - - 0.4
29/08:30am 3.3 -2.1 1.3 87 0.8 W 19 28 10 15 - - 0.4
29/08:00am 2.7 -3.2 1.4 91 0.5 W 22 30 12 16 - - 0.4
29/07:30am 2.5 -2.9 1.2 91 0.5 WSW 19 22 10 12 - - 0.4
29/07:00am 2.4 -3.6 1.1 91 0.5 WSW 22 32 12 17 - - 0.4
29/06:30am 2.2 -3.8 1.0 92 0.5 WSW 22 30 12 16 - - 0.4
29/06:00am 2.2 -3.4 1.0 92 0.5 WSW 20 26 11 14 - - 0.4
29/05:51am 2.2 -3.4 1.0 92 0.5 WSW 20 26 11 14 - - 0.4
29/05:30am 2.1 -3.5 1.1 93 0.4 WSW 20 26 11 14 - - 0.4
29/05:21am 2.1 -3.3 1.1 93 0.4 WSW 19 24 10 13 - - 0.4
29/05:04am 2.2 -3.2 1.0 92 0.5 WSW 19 22 10 12 - - 0.4
29/05:00am 2.1 -3.0 0.9 92 0.5 WSW 17 22 9 12 - - 0.4
29/04:48am 2.3 -2.7 1.1 92 0.5 WSW 17 22 9 12 - - 0.4
29/04:45am 2.2 -2.9 1.0 92 0.5 W 17 20 9 11 - - 0.4
29/04:30am 2.1 -2.2 0.9 92 0.5 W 13 17 7 9 - - 0.4
29/04:00am 2.4 -2.3 1.2 92 0.5 W 15 19 8 10 - - 0.4
29/03:53am 2.5 -2.1 1.3 92 0.5 W 15 19 8 10 - - 0.4
29/03:38am 2.5 -1.8 1.0 90 0.6 W 13 17 7 9 - - 0.4
29/03:30am 2.7 -1.6 1.2 90 0.6 W 13 19 7 10 - - 0.4
29/03:10am 2.9 -1.3 1.4 90 0.6 W 13 19 7 10 - - 0.4
29/03:00am 2.9 -1.3 1.6 91 0.5 W 13 17 7 9 - - 0.4
29/02:30am 3.1 -1.8 2.2 94 0.4 W 17 20 9 11 - - 0.4
29/02:23am 3.1 -1.8 2.2 94 0.4 W 17 22 9 12 - - 0.4
29/02:00am 3.3 -1.2 2.3 93 0.4 W 15 17 8 9 - - 0.4
29/01:33am 3.8 -0.6 2.6 92 0.5 W 15 17 8 9 - - 0.4
29/01:30am 3.7 -0.4 2.5 92 0.5 W 13 17 7 9 - - 0.4
29/01:00am 4.1 -0.3 2.8 91 0.6 WSW 15 19 8 10 - - 0.4
29/12:30am 4.6 -0.1 3.1 90 0.7 W 17 24 9 13 - - 0.4
29/12:00am 4.8 0.6 3.6 92 0.5 W 15 19 8 10 - - 0.0
 
Date/Time
EST
Temp
°C
App
Temp
°C
Dew
Point
°C
Rel
Hum
%
Delta-T
°C
Wind Press
QNH
hPa
Press
MSL
hPa
Rain since
9am
mm
Dir  Spd
km/h
Gust
km/h
Spd
kts
Gust
kts
28/11:30pm 5.0 0.8 3.7 91 0.6 W 15 22 8 12 - - 0.0
28/11:00pm 5.5 1.0 4.2 91 0.6 W 17 26 9 14 - - 0.0
28/10:30pm 5.9 1.1 4.5 91 0.6 W 19 24 10 13 - - 0.0
28/10:00pm 5.9 1.1 4.9 93 0.5 W 19 30 10 16 - - 0.0
28/09:30pm 6.2 0.9 5.0 92 0.6 WSW 22 33 12 18 - - 0.0
28/09:00pm 6.2 1.5 5.2 93 0.5 WSW 19 28 10 15 - - 0.0
28/08:30pm 6.3 1.6 5.3 93 0.5 WSW 19 26 10 14 - - 0.0
28/08:00pm 6.3 2.3 5.1 92 0.6 WSW 15 19 8 10 - - 0.0
28/07:30pm 6.7 2.4 5.3 91 0.7 W 17 22 9 12 - - 0.0
28/07:00pm 6.9 2.3 5.5 91 0.7 WSW 19 26 10 14 - - 0.0
28/06:30pm 7.2 2.5 5.3 88 0.9 WSW 19 24 10 13 - - 0.0
28/06:00pm 8.1 3.5 5.4 83 1.3 WSW 19 28 10 15 - - 0.0
28/05:30pm 8.1 3.8 5.4 83 1.3 WSW 17 24 9 13 - - 0.0
28/05:00pm 8.5 4.5 4.9 78 1.7 W 15 22 8 12 - - 0.0
28/04:30pm 9.4 5.0 4.8 73 2.2 WSW 17 24 9 13 - - 0.0
28/04:00pm 9.5 4.7 4.5 71 2.4 WSW 19 28 10 15 - - 0.0
28/03:30pm 10.8 6.0 4.7 66 2.9 WSW 19 30 10 16 - - 0.0
28/03:00pm 10.6 5.0 5.4 70 2.5 WSW 24 37 13 20 - - 0.0
28/02:30pm 10.9 6.2 5.9 71 2.5 W 20 37 11 20 - - 0.0
28/02:00pm 12.1 7.7 6.6 69 2.8 WSW 19 32 10 17 - - 0.0
28/01:30pm 12.8 8.5 7.0 68 3.0 W 19 28 10 15 - - 0.0
28/01:00pm 12.1 7.9 7.4 73 2.4 W 19 30 10 16 - - 0.0
28/12:30pm 11.2 7.5 7.9 80 1.7 W 17 28 9 15 - - 0.0
28/12:00pm 10.9 7.2 7.8 81 1.6 W 17 24 9 13 - - 0.0
28/11:46am 10.5 6.2 7.7 83 1.4 W 20 30 11 16 - - 0.0
28/11:30am 10.3 5.6 7.7 84 1.3 W 22 33 12 18 - - 0.0
28/11:00am 9.8 5.2 8.1 89 0.9 WSW 22 35 12 19 - - 0.0
28/10:30am 9.9 4.5 8.0 88 1.0 W 26 41 14 22 - - 0.0
28/10:00am 9.7 5.3 8.8 94 0.5 WSW 22 32 12 17 - - 0.0
28/09:30am 9.4 5.9 8.6 95 0.4 W 17 20 9 11 - - 0.0
28/09:00am 8.6 4.5 8.0 96 0.3 W 19 26 10 14 - - 2.2
28/08:30am 8.3 4.2 8.0 98 0.2 W 19 26 10 14 - - 2.2
28/08:00am 8.4 4.4 8.1 98 0.2 W 19 26 10 14 - - 2.2
28/07:30am 8.1 5.1 7.7 97 0.2 W 13 19 7 10 - - 2.2
28/07:00am 8.3 4.9 7.7 96 0.3 WSW 15 20 8 11 - - 2.2
28/06:51am 8.3 5.3 7.7 96 0.3 WSW 13 20 7 11 - - 2.2
28/06:30am 8.5 5.5 7.6 94 0.5 W 13 24 7 13 - - 2.2
28/06:00am 8.7 4.9 7.6 93 0.6 W 17 26 9 14 - - 2.2
28/05:30am 8.8 6.2 7.9 94 0.5 WNW 11 17 6 9 - - 2.2
28/05:00am 8.8 6.8 8.5 98 0.2 WNW 9 15 5 8 - - 2.2
28/04:50am 8.9 7.3 8.8 99 0.1 W 7 13 4 7 - - 2.2
28/04:30am 9.0 7.4 8.9 99 0.1 W 7 11 4 6 - - 2.2
28/04:06am 9.0 7.0 8.7 98 0.2 W 9 11 5 6 - - 2.2
28/04:00am 9.0 7.4 8.7 98 0.2 W 7 11 4 6 - - 2.2
28/03:30am 9.1 7.5 8.8 98 0.2 WSW 7 9 4 5 - - 2.2
28/03:09am 9.2 7.3 9.1 99 0.1 W 9 13 5 7 - - 2.2
28/03:04am 9.3 7.4 9.2 99 0.1 W 9 13 5 7 - - 2.2
28/03:00am 9.3 7.4 9.2 99 0.1 W 9 13 5 7 - - 2.2
28/02:33am 9.2 7.6 8.9 98 0.2 WSW 7 11 4 6 - - 2.2
28/02:30am 9.2 7.6 8.9 98 0.2 WSW 7 11 4 6 - - 2.2
28/02:17am 9.3 7.8 9.0 98 0.2 W 7 11 4 6 - - 2.2
28/02:00am 9.6 8.1 9.1 97 0.3 WNW 7 13 4 7 - - 2.2
28/01:35am 9.5 9.0 9.2 98 0.2 WNW 2 9 1 5 - - 2.2
28/01:30am 9.4 8.5 9.1 98 0.2 WNW 4 9 2 5 - - 2.2
28/01:15am 9.4 8.0 8.9 97 0.3 W 6 9 3 5 - - 2.2
28/01:00am 9.7 9.5 9.1 96 0.3 CALM 0 6 0 3 - - 2.2
28/12:30am 10.1 8.3 9.5 96 0.3 N 9 13 5 7 - - 2.2
28/12:00am 10.0 7.6 9.9 99 0.1 N 13 17 7 9 - - 2.0
 
Date/Time
EST
Temp
°C
App
Temp
°C
Dew
Point
°C
Rel
Hum
%
Delta-T
°C
Wind Press
QNH
hPa
Press
MSL
hPa
Rain since
9am
mm
Dir  Spd
km/h
Gust
km/h
Spd
kts
Gust
kts
27/11:34pm 9.3 8.4 9.2 99 0.1 NNW 4 13 2 7 - - 2.0
27/11:30pm 9.3 7.8 9.2 99 0.1 NNE 7 13 4 7 - - 2.0
27/11:00pm 9.2 7.3 9.1 99 0.1 NE 9 13 5 7 - - 2.0
27/10:47pm 9.4 7.6 9.3 99 0.1 NE 9 13 5 7 - - 2.0
27/10:30pm 9.3 7.4 9.2 99 0.1 NE 9 15 5 8 - - 2.0
27/10:00pm 9.1 7.2 9.0 99 0.1 ENE 9 13 5 7 - - 2.0
27/09:30pm 9.4 7.5 9.1 98 0.2 ENE 9 13 5 7 - - 2.0
27/09:00pm 9.7 8.3 9.4 98 0.2 ENE 7 11 4 6 - - 2.0
27/08:30pm 10.0 8.3 9.9 99 0.1 NE 9 15 5 8 - - 2.0
27/08:00pm 10.5 9.3 10.3 99 0.1 ENE 7 13 4 7 - - 2.0
27/07:30pm 10.5 9.3 10.3 99 0.1 ENE 7 15 4 8 - - 2.0
27/07:00pm 10.0 8.6 9.7 98 0.2 ENE 7 11 4 6 - - 2.0
27/06:50pm 10.0 8.6 9.7 98 0.2 ENE 7 9 4 5 - - 2.0
27/06:33pm 9.8 8.4 9.5 98 0.2 ENE 7 11 4 6 - - 2.0
27/06:30pm 9.8 8.4 9.5 98 0.2 ENE 7 11 4 6 - - 2.0
27/06:00pm 9.5 7.5 8.7 95 0.4 ENE 9 9 5 5 - - 2.0
27/05:30pm 9.5 7.5 8.6 94 0.5 ENE 9 11 5 6 - - 2.0
27/05:00pm 10.0 8.0 8.6 91 0.7 ENE 9 9 5 5 - - 2.0
27/04:30pm 11.1 9.7 9.7 91 0.8 ENE 7 9 4 5 - - 2.0
27/04:22pm 11.3 10.0 9.9 91 0.8 ENE 7 11 4 6 - - 2.0
27/04:00pm 11.6 10.0 10.3 92 0.7 ENE 9 15 5 8 - - 1.2
27/03:47pm 12.1 10.4 9.8 86 1.2 ENE 9 15 5 8 - - 0.4
27/03:30pm 13.0 11.7 9.3 78 2.0 ENE 6 11 3 6 - - 0.2
27/03:29pm 13.1 11.8 9.2 77 2.1 ENE 6 11 3 6 - - 0.2
27/03:19pm 13.2 11.9 9.1 76 2.2 E 6 13 3 7 - - 0.2
27/03:00pm 13.7 12.5 9.6 76 2.2 E 6 11 3 6 - - 0.2
27/02:30pm 13.7 12.4 9.2 74 2.4 E 6 11 3 6 - - 0.2
27/02:00pm 13.9 12.7 7.9 67 3.2 ENE 4 9 2 5 - - 0.2
27/01:30pm 14.0 13.3 7.1 63 3.6 CALM 0 0 0 0 - - 0.2
27/01:00pm 15.1 13.4 7.4 60 4.0 WNW 6 9 3 5 - - 0.2
27/12:30pm 14.2 11.8 6.8 61 3.8 WNW 9 13 5 7 - - 0.0
27/12:00pm 13.9 11.6 7.4 65 3.4 W 9 13 5 7 - - 0.0
27/11:30am 13.6 11.1 6.7 63 3.5 W 9 13 5 7 - - 0.0
27/11:00am 14.1 13.4 6.9 62 3.7 CALM 0 0 0 0 - - 0.0
27/10:30am 13.1 10.9 5.5 60 3.8 W 6 7 3 4 - - 0.0
27/10:00am 12.8 11.2 6.4 65 3.2 W 4 7 2 4 - - 0.0
27/09:30am 11.8 9.7 6.7 71 2.6 WNW 7 11 4 6 - - 0.0
27/09:00am 10.9 9.0 6.5 74 2.2 W 6 7 3 4 - - 0.2
27/08:30am 10.3 8.2 6.6 78 1.8 WNW 7 7 4 4 - - 0.2
27/08:00am 9.1 7.0 6.5 84 1.3 WNW 7 9 4 5 - - 0.2
27/07:30am 8.6 6.3 5.9 83 1.3 WNW 7 9 4 5 - - 0.2
27/07:00am 8.5 6.4 6.6 88 0.9 WSW 7 9 4 5 - - 0.2
27/06:30am 8.6 6.4 6.2 85 1.2 W 7 9 4 5 - - 0.2
27/06:00am 8.3 6.0 5.9 85 1.2 W 7 9 4 5 - - 0.2
27/05:30am 8.7 6.5 5.3 79 1.6 WNW 6 7 3 4 - - 0.2
27/05:00am 9.4 6.7 5.6 77 1.8 NNW 9 13 5 7 - - 0.2
27/04:30am 8.5 7.3 6.5 87 1.0 NW 2 7 1 4 - - 0.2
27/04:00am 8.5 7.8 7.1 91 0.7 CALM 0 0 0 0 - - 0.2
27/03:30am 8.5 6.4 6.6 88 0.9 NW 7 11 4 6 - - 0.2
27/03:00am 8.5 6.4 6.8 89 0.8 NW 7 9 4 5 - - 0.2
27/02:30am 9.6 6.1 7.2 85 1.2 N 15 17 8 9 - - 0.2
27/02:05am 9.3 6.8 8.2 93 0.6 N 11 15 6 8 - - 0.2
27/02:04am 9.2 6.7 8.1 93 0.6 N 11 13 6 7 - - 0.2
27/02:00am 9.1 6.6 8.3 95 0.4 N 11 13 6 7 - - 0.2
27/01:39am 7.8 6.0 7.1 95 0.3 W 6 7 3 4 - - 0.2
27/01:30am 8.3 6.3 7.1 92 0.6 NW 7 11 4 6 - - 0.2
27/01:00am 9.0 6.4 7.9 93 0.6 N 11 15 6 8 - - 0.2
27/12:30am 8.7 6.9 8.1 96 0.3 NNW 7 11 4 6 - - 0.2
27/12:00am 8.7 6.5 7.9 95 0.4 N 9 13 5 7 - - 0.2
 
Date/Time
EST
Temp
°C
App
Temp
°C
Dew
Point
°C
Rel
Hum
%
Delta-T
°C
Wind Press
QNH
hPa
Press
MSL
hPa
Rain since
9am
mm
Dir  Spd
km/h
Gust
km/h
Spd
kts
Gust
kts
26/11:30pm 8.6 6.5 8.3 98 0.2 NNE 9 13 5 7 - - 0.2
26/11:00pm 8.4 6.3 8.1 98 0.2 NE 9 13 5 7 - - 0.2
26/10:47pm 8.4 6.6 8.1 98 0.2 NE 7 13 4 7 - - 0.2
26/10:30pm 8.2 6.1 8.1 99 0.1 ENE 9 11 5 6 - - 0.2
26/10:13pm 8.5 6.4 8.4 99 0.1 NE 9 13 5 7 - - 0.2
26/10:00pm 8.6 6.6 8.5 99 0.1 NE 9 13 5 7 - - 0.2
26/09:31pm 8.7 6.7 8.6 99 0.1 NE 9 13 5 7 - - 0.2
26/09:30pm 8.7 6.7 8.6 99 0.1 NE 9 13 5 7 - - 0.2
26/09:00pm 9.0 7.4 8.9 99 0.1 NE 7 11 4 6 - - 0.2
26/08:32pm 8.9 6.9 8.6 98 0.2 NE 9 13 5 7 - - 0.2
26/08:30pm 8.8 7.1 8.5 98 0.2 NE 7 13 4 7 - - 0.2
26/08:00pm 9.2 7.3 8.9 98 0.2 ENE 9 13 5 7 - - 0.2
26/07:36pm 9.2 7.2 8.7 97 0.3 ENE 9 13 5 7 - - 0.2
26/07:30pm 9.2 7.2 8.7 97 0.3 ENE 9 13 5 7 - - 0.2
26/07:18pm 9.2 7.2 8.7 97 0.3 ENE 9 11 5 6 - - 0.2
26/07:00pm 9.4 7.4 8.8 96 0.3 ENE 9 13 5 7 - - 0.2
26/06:55pm 9.4 7.4 8.8 96 0.3 ENE 9 11 5 6 - - 0.2
26/06:45pm 9.5 7.6 8.9 96 0.3 ENE 9 13 5 7 - - 0.2
26/06:38pm 9.6 8.0 8.8 95 0.4 ENE 7 9 4 5 - - 0.2
26/06:30pm 9.7 8.1 8.9 95 0.4 ENE 7 9 4 5 - - 0.2
26/06:00pm 10.1 8.6 9.3 95 0.4 ENE 7 11 4 6 - - 0.2
26/05:50pm 10.1 8.6 9.0 93 0.6 ENE 7 9 4 5 - - 0.2
26/05:45pm 10.1 8.6 9.0 93 0.6 ENE 7 9 4 5 - - 0.2
26/05:30pm 10.5 9.0 9.3 92 0.6 ENE 7 9 4 5 - - 0.2
26/05:29pm 10.5 9.0 9.3 92 0.6 ENE 7 9 4 5 - - 0.2
26/05:18pm 10.7 9.3 9.5 92 0.6 ENE 7 9 4 5 - - 0.2
26/05:00pm 11.1 9.7 9.5 90 0.9 ENE 7 9 4 5 - - 0.2
26/04:30pm 11.9 11.6 10.1 89 1.0 ENE 2 7 1 4 - - 0.2
26/04:27pm 11.8 11.1 10.0 89 1.0 ENE 4 11 2 6 - - 0.2
26/04:00pm 12.2 10.9 9.8 85 1.3 ENE 7 9 4 5 - - 0.2
26/03:30pm 12.6 10.8 8.1 74 2.4 NE 7 9 4 5 - - 0.2
26/03:00pm 13.3 12.0 7.5 68 3.0 N 4 9 2 5 - - 0.2
26/02:30pm 13.5 12.7 8.1 70 2.8 NNE 2 7 1 4 - - 0.2
26/02:00pm 14.3 13.6 8.7 69 3.0 N 2 9 1 5 - - 0.0
26/01:30pm 13.7 11.9 8.1 69 3.0 W 7 17 4 9 - - 0.0

Other formats

Comma delimited format used in spreadsheet applications
http://www.bom.gov.au/fwo/IDN60801/IDN60801.94743.axf

JavaScript Object Notation format (JSON) in row-major order
http://www.bom.gov.au/fwo/IDN60801/IDN60801.94743.json

Data quality

Most of these data are generated automatically and are frequently updated. Quality checks on data are not normally performed. It is possible for incorrect values to appear. Refer to information at About Latest Weather Observations and please check the disclaimer before using these data.